createdAt,value
2022-08-29T00:08:09.007Z,99266.91
2022-08-29T00:13:12.459Z,99273.09
2022-08-29T00:18:16.053Z,99278.38
2022-08-29T00:30:12.508Z,99282.84
2022-08-29T00:42:07.488Z,99287.91
2022-08-29T00:47:12.429Z,99284.34
2022-08-29T01:26:15.897Z,99291.84
2022-08-29T01:37:41.350Z,99285.75
2022-08-29T01:42:44.501Z,99279.44
2022-08-29T01:47:46.800Z,99285.75
2022-08-29T01:52:49.071Z,99280.47
2022-08-29T01:57:51.465Z,99284.41
2022-08-29T02:03:01.249Z,99282.81
2022-08-29T02:08:03.754Z,99281.56
2022-08-29T02:26:20.424Z,99274.72
2022-08-29T02:31:23.610Z,99266.53
2022-08-29T02:36:26.431Z,99259.13
2022-08-29T02:41:29.629Z,99263.28
2022-08-29T02:46:33.778Z,99264.94
2022-08-29T02:51:36.229Z,99268.91
2022-08-29T03:10:04.340Z,99261.56
2022-08-29T03:15:07.985Z,99263.25
2022-08-29T03:20:11.443Z,99265.56
2022-08-29T03:25:16.836Z,99268.00
2022-08-29T03:36:39.697Z,99269.88
2022-08-29T03:41:42.032Z,99268.09
2022-08-29T03:46:44.353Z,99272.91
2022-08-29T03:51:46.781Z,99277.34
2022-08-29T03:56:49.064Z,99282.41
2022-08-29T04:01:51.458Z,99286.16
2022-08-29T04:06:53.730Z,99295.41
2022-08-29T04:11:57.931Z,99283.72
2022-08-29T04:17:00.173Z,99284.69
2022-08-29T04:22:02.957Z,99296.47
2022-08-29T04:27:06.151Z,99291.22
2022-08-29T04:32:08.396Z,99291.31
2022-08-29T04:37:10.649Z,99285.13
2022-08-29T04:42:17.041Z,99287.44
2022-08-29T04:47:22.502Z,99289.88
2022-08-29T04:58:47.425Z,99289.19
2022-08-29T05:03:50.294Z,99290.66
2022-08-29T05:08:55.005Z,99288.13
2022-08-29T05:20:56.253Z,99297.16
2022-08-29T05:26:02.286Z,99300.13
2022-08-29T05:31:06.284Z,99313.25
2022-08-29T05:36:09.315Z,99292.84
2022-08-29T05:41:13.293Z,99287.53
2022-08-29T05:46:20.077Z,99285.38
2022-08-29T05:59:14.872Z,99284.03
2022-08-29T06:04:19.681Z,99232.78
2022-08-29T06:09:22.504Z,99248.50
2022-08-29T06:14:25.467Z,99267.53
2022-08-29T06:25:55.712Z,99295.94
2022-08-29T06:31:09.156Z,99289.44
2022-08-29T06:43:05.569Z,99290.13
